createdAt,value
2019-05-14T00:01:39.139Z,99217.84
2019-05-14T00:03:41.384Z,99193.66
2019-05-14T00:05:42.565Z,99213.16
2019-05-14T00:07:44.177Z,99208.87
2019-05-14T00:09:45.775Z,99203.34
2019-05-14T00:11:47.364Z,99207.59
2019-05-14T00:13:48.986Z,99204.58
2019-05-14T00:15:52.151Z,99197.76
2019-05-14T00:17:52.412Z,99198.62
2019-05-14T00:20:06.239Z,99194.78
2019-05-14T00:21:55.532Z,99191.81
2019-05-14T00:23:57.162Z,99186.31
2019-05-14T00:25:58.831Z,99192.66
2019-05-14T00:28:01.325Z,99196.46
2019-05-14T00:30:02.523Z,99190.89
2019-05-14T00:32:03.694Z,99193.02
2019-05-14T00:34:05.336Z,99190.02
2019-05-14T00:36:06.943Z,99183.15
2019-05-14T00:38:08.666Z,99184.38
2019-05-14T00:40:11.797Z,99189.51
2019-05-14T00:42:12.501Z,99191.21
2019-05-14T00:44:13.668Z,99192.06
2019-05-14T00:46:15.252Z,99188.25
2019-05-14T00:48:16.818Z,99192.14
2019-05-14T00:50:18.400Z,99186.59
2019-05-14T00:52:22.037Z,99190.83
2019-05-14T00:54:21.712Z,99187.41
2019-05-14T00:56:23.325Z,99183.58
2019-05-14T00:58:24.963Z,99184.02
2019-05-14T01:00:26.573Z,99182.34
2019-05-14T01:02:28.185Z,99187.03
2019-05-14T01:04:31.661Z,99191.30
2019-05-14T01:06:31.674Z,99176.77
2019-05-14T01:08:33.151Z,99179.79
2019-05-14T01:10:34.747Z,99182.77
2019-05-14T01:12:36.322Z,99183.63
2019-05-14T01:14:37.944Z,99180.66
2019-05-14T01:16:42.220Z,99189.62
2019-05-14T01:18:41.530Z,99190.84
2019-05-14T01:20:42.847Z,99192.13
2019-05-14T01:22:44.418Z,99185.33
2019-05-14T01:24:46.024Z,99182.78
2019-05-14T01:26:47.642Z,99184.90
2019-05-14T01:28:51.196Z,99182.34
2019-05-14T01:30:51.892Z,99184.05
2019-05-14T01:32:52.580Z,99178.95
2019-05-14T01:34:54.188Z,99178.53
2019-05-14T01:36:55.809Z,99175.54
2019-05-14T01:38:57.383Z,99179.76
2019-05-14T01:41:01.605Z,99178.48
2019-05-14T01:43:02.584Z,99177.20
2019-05-14T01:45:02.724Z,99182.31
2019-05-14T01:47:04.003Z,99179.36
2019-05-14T01:49:05.648Z,99176.37
2019-05-14T01:51:07.250Z,99175.55
2019-05-14T01:53:08.860Z,99178.55
2019-05-14T01:55:11.389Z,99184.07
2019-05-14T01:57:12.080Z,99178.91
2019-05-14T01:59:13.682Z,99175.88
2019-05-14T02:01:15.353Z,99179.27
2019-05-14T02:03:16.964Z,99181.78
2019-05-14T02:05:18.563Z,99137.59
2019-05-14T02:07:22.126Z,99182.94
2019-05-14T02:09:21.854Z,99180.78
2019-05-14T02:11:23.496Z,99177.80
2019-05-14T02:13:25.080Z,99180.75
2019-05-14T02:15:38.869Z,99176.46
2019-05-14T02:17:28.318Z,99170.88
2019-05-14T02:19:31.666Z,99176.00
2019-05-14T02:21:31.920Z,99176.46
2019-05-14T02:23:33.220Z,99168.75
2019-05-14T02:25:34.860Z,99171.31
2019-05-14T02:27:36.463Z,99171.34
2019-05-14T02:29:38.101Z,99168.38
2019-05-14T02:31:39.697Z,99164.16
2019-05-14T02:33:41.310Z,99166.31
2019-05-14T02:35:42.915Z,99159.95
2019-05-14T02:37:44.501Z,99168.05
2019-05-14T02:39:46.240Z,99167.66
2019-05-14T02:41:49.936Z,99167.25
2019-05-14T02:43:50.566Z,99163.81
2019-05-14T02:46:09.761Z,99165.94
2019-05-14T02:47:53.348Z,99157.41
2019-05-14T02:49:54.936Z,99163.39
2019-05-14T02:51:59.090Z,99162.11
2019-05-14T02:53:59.085Z,99150.19
2019-05-14T02:55:59.813Z,99153.12
2019-05-14T02:58:01.433Z,99158.23
2019-05-14T03:00:03.090Z,99155.66
2019-05-14T03:02:04.701Z,99160.32
2019-05-14T03:04:08.942Z,99162.09
2019-05-14T03:06:09.411Z,99156.98
2019-05-14T03:08:09.710Z,99154.05
2019-05-14T03:10:11.311Z,99160.91
2019-05-14T03:12:12.943Z,99156.20
2019-05-14T03:14:14.564Z,99158.30
2019-05-14T03:16:26.095Z,99155.28
2019-05-14T03:18:19.811Z,99143.31
2019-05-14T03:20:19.854Z,99150.16
2019-05-14T03:22:26.736Z,99150.56
2019-05-14T03:24:22.823Z,99149.25
2019-05-14T03:26:24.439Z,99150.51
2019-05-14T03:28:26.049Z,99153.09
2019-05-14T03:30:32.201Z,99153.06
2019-05-14T03:32:32.894Z,99148.80
2019-05-14T03:34:33.142Z,99151.79
2019-05-14T03:36:35.001Z,99146.70
2019-05-14T03:38:34.252Z,99144.99
2019-05-14T03:40:35.880Z,99138.17
2019-05-14T03:42:39.993Z,99141.55
2019-05-14T03:44:39.973Z,99141.52
2019-05-14T03:46:48.917Z,99138.94
2019-05-14T03:48:42.545Z,99142.75
2019-05-14T03:50:44.134Z,99134.19
2019-05-14T03:52:45.740Z,99142.72
2019-05-14T03:54:49.692Z,99135.86
2019-05-14T03:56:49.814Z,99128.18
2019-05-14T03:58:50.699Z,99126.91
2019-05-14T04:00:52.289Z,99127.33
2019-05-14T04:02:53.877Z,99123.03
2019-05-14T04:04:55.504Z,99126.02
2019-05-14T04:06:59.899Z,99078.91
2019-05-14T04:09:00.570Z,99115.38
2019-05-14T04:11:00.516Z,99116.20
2019-05-14T04:13:02.136Z,99120.50
2019-05-14T04:15:03.720Z,99120.50
2019-05-14T04:17:11.075Z,99129.89
2019-05-14T04:19:09.787Z,99125.68
2019-05-14T04:21:09.853Z,99136.38
2019-05-14T04:23:10.258Z,99128.30
2019-05-14T04:25:11.884Z,99127.02
2019-05-14T04:27:13.679Z,99125.31
2019-05-14T04:29:15.114Z,99132.19
2019-05-14T04:31:19.158Z,99131.79
2019-05-14T04:33:18.893Z,99129.69
2019-05-14T04:35:20.281Z,99134.33
2019-05-14T04:37:21.696Z,99131.68
2019-05-14T04:39:23.340Z,99135.03
2019-05-14T04:41:24.945Z,99135.01
2019-05-14T04:43:29.177Z,99137.51
2019-05-14T04:45:29.719Z,99139.16
2019-05-14T04:47:36.059Z,99136.99
2019-05-14T04:49:31.536Z,99142.55
2019-05-14T04:51:33.124Z,99141.69
2019-05-14T04:53:34.713Z,99137.45
2019-05-14T04:55:36.292Z,99141.72
2019-05-14T04:57:39.173Z,99137.88
2019-05-14T04:59:40.018Z,99143.42
2019-05-14T05:01:41.166Z,99142.55
2019-05-14T05:03:42.762Z,99136.55
2019-05-14T05:05:44.378Z,99138.64
2019-05-14T05:07:48.946Z,99137.36
2019-05-14T05:09:50.252Z,99135.23
2019-05-14T05:11:49.976Z,99142.05
2019-05-14T05:13:50.999Z,99138.61
2019-05-14T05:15:52.620Z,99136.02
2019-05-14T05:17:54.208Z,99144.10
2019-05-14T05:19:58.954Z,99140.62
2019-05-14T05:21:58.724Z,99138.88
2019-05-14T05:23:59.244Z,99144.40
2019-05-14T05:26:00.832Z,99137.07
2019-05-14T05:28:02.436Z,99134.91
2019-05-14T05:30:04.024Z,99130.17
2019-05-14T05:32:05.665Z,99129.28
2019-05-14T05:34:08.919Z,99133.55
2019-05-14T05:36:09.583Z,99090.34
2019-05-14T05:38:10.556Z,99130.95
2019-05-14T05:40:12.168Z,99125.83
2019-05-14T05:42:13.788Z,99123.69
2019-05-14T05:44:16.013Z,99117.64
2019-05-14T05:46:19.139Z,99118.49
2019-05-14T05:48:19.291Z,99110.34
2019-05-14T05:50:20.871Z,99110.73
2019-05-14T05:52:22.512Z,99115.82
2019-05-14T05:54:24.099Z,99118.81
2019-05-14T05:56:25.679Z,99121.38
2019-05-14T05:58:29.935Z,99121.34
2019-05-14T06:00:29.849Z,99123.55
2019-05-14T06:02:30.588Z,99128.00
2019-05-14T06:04:32.176Z,99132.55
2019-05-14T06:06:33.784Z,99121.52
2019-05-14T06:08:35.365Z,99124.83
2019-05-14T06:10:39.740Z,99122.66
2019-05-14T06:12:39.032Z,99128.64
2019-05-14T06:14:40.316Z,99128.25
2019-05-14T06:16:41.942Z,99121.12
2019-05-14T06:18:43.556Z,99123.34
2019-05-14T06:20:45.146Z,99127.18
2019-05-14T06:22:48.862Z,99129.81
2019-05-14T06:24:48.765Z,99129.06
2019-05-14T06:26:50.172Z,99129.88
2019-05-14T06:28:51.760Z,99135.92
2019-05-14T06:30:53.359Z,99135.17
2019-05-14T06:32:54.995Z,99136.08
2019-05-14T06:34:59.149Z,99133.95
2019-05-14T06:36:59.154Z,99123.70
2019-05-14T06:38:59.888Z,99128.40
2019-05-14T06:41:01.504Z,99129.28
2019-05-14T06:43:03.130Z,99127.61
2019-05-14T06:45:04.707Z,99125.44
2019-05-14T06:47:06.348Z,99121.99
2019-05-14T06:49:09.105Z,99125.47
2019-05-14T06:51:09.580Z,99119.83
2019-05-14T06:53:11.164Z,99108.27
2019-05-14T06:55:12.772Z,99106.56
2019-05-14T06:57:14.416Z,99113.48
2019-05-14T06:59:18.021Z,99111.39
2019-05-14T07:01:18.497Z,99117.00
2019-05-14T07:03:19.313Z,99108.89
2019-05-14T07:05:20.922Z,99101.50
2019-05-14T07:07:22.550Z,99100.91
2019-05-14T07:09:24.141Z,99100.38
2019-05-14T07:11:25.726Z,99100.16
2019-05-14T07:13:29.213Z,99103.86
2019-05-14T07:15:29.152Z,99101.66
2019-05-14T07:17:30.667Z,99098.94
2019-05-14T07:19:32.272Z,99099.47
2019-05-14T07:21:33.900Z,99094.89
2019-05-14T07:23:38.190Z,99095.80
2019-05-14T07:25:39.249Z,99101.38
2019-05-14T07:27:39.334Z,99097.00
2019-05-14T07:29:40.522Z,99101.27
2019-05-14T07:31:42.112Z,99101.75
2019-05-14T07:33:43.683Z,99097.88
2019-05-14T07:35:45.270Z,99092.76
2019-05-14T07:37:48.895Z,99090.69
2019-05-14T07:39:48.802Z,99088.16
2019-05-14T07:41:50.188Z,99095.44
2019-05-14T07:43:51.782Z,99090.74
2019-05-14T07:45:53.392Z,99088.22
2019-05-14T07:47:55.055Z,99092.48
2019-05-14T07:49:58.271Z,99089.06
2019-05-14T07:51:58.843Z,99086.54
2019-05-14T07:54:00.124Z,99085.71
2019-05-14T07:56:01.709Z,99083.18
2019-05-14T07:58:03.350Z,99084.06
2019-05-14T08:00:04.960Z,99083.24
2019-05-14T08:02:09.330Z,99046.78
2019-05-14T08:04:11.179Z,99084.92
2019-05-14T08:06:10.623Z,99079.37
2019-05-14T08:08:12.216Z,99078.92
2019-05-14T08:10:13.856Z,99070.78
2019-05-14T08:12:18.604Z,99066.09
2019-05-14T08:14:18.522Z,99073.34
2019-05-14T08:16:18.910Z,99073.77
2019-05-14T08:18:20.917Z,99066.06
2019-05-14T08:20:22.054Z,99065.64
2019-05-14T08:22:23.636Z,99068.64
2019-05-14T08:24:27.096Z,99060.44
2019-05-14T08:26:28.751Z,99054.02
2019-05-14T08:28:29.011Z,99051.02
2019-05-14T08:30:30.285Z,99061.31
2019-05-14T08:32:31.868Z,99054.91
2019-05-14T08:34:33.434Z,99054.90
2019-05-14T08:36:35.038Z,99046.81
2019-05-14T08:38:38.320Z,99051.91
2019-05-14T08:40:38.348Z,99054.45
2019-05-14T08:42:39.916Z,99055.79
2019-05-14T08:44:41.483Z,99061.54
2019-05-14T08:46:45.145Z,99052.47
2019-05-14T08:48:44.712Z,99045.52
2019-05-14T08:50:48.107Z,99043.75
2019-05-14T08:52:48.458Z,99047.55
2019-05-14T08:55:05.409Z,99049.20
2019-05-14T08:56:51.305Z,99050.88
2019-05-14T08:58:52.896Z,99051.66
2019-05-14T09:00:54.484Z,99059.31
2019-05-14T09:02:56.068Z,99052.45
2019-05-14T09:05:03.699Z,99062.27
2019-05-14T09:06:59.416Z,99057.11
2019-05-14T09:09:00.991Z,99056.22
2019-05-14T09:11:02.601Z,99053.62
2019-05-14T09:13:04.198Z,99053.59
2019-05-14T09:15:05.785Z,99057.11
2019-05-14T09:17:09.675Z,99051.55
2019-05-14T09:19:09.027Z,99057.03
2019-05-14T09:21:10.635Z,99055.75
2019-05-14T09:23:12.231Z,99054.48
2019-05-14T09:25:13.847Z,99056.22
2019-05-14T09:27:15.437Z,99046.79
2019-05-14T09:29:25.273Z,99051.91
2019-05-14T09:31:19.772Z,99039.96
2019-05-14T09:33:23.951Z,99039.64
2019-05-14T09:35:21.984Z,99037.97
2019-05-14T09:37:23.592Z,99041.05
2019-05-14T09:39:25.189Z,99029.70
2019-05-14T09:41:30.152Z,99024.22
2019-05-14T09:43:28.665Z,99030.22
2019-05-14T09:45:30.139Z,99031.11
2019-05-14T09:47:31.746Z,99026.38
2019-05-14T09:49:33.372Z,99028.42
2019-05-14T09:51:34.945Z,99029.73
2019-05-14T09:53:38.425Z,99032.72
2019-05-14T09:55:38.849Z,99033.05
2019-05-14T09:57:39.891Z,99024.89
2019-05-14T09:59:41.486Z,99021.48
2019-05-14T10:01:43.074Z,99020.26
2019-05-14T10:03:44.665Z,99026.28
2019-05-14T10:05:46.258Z,99012.24
2019-05-14T10:07:49.489Z,99014.83
2019-05-14T10:09:49.518Z,99012.27
2019-05-14T10:11:51.128Z,98974.14
2019-05-14T10:13:52.746Z,99011.02
2019-05-14T10:15:54.333Z,99004.17
2019-05-14T10:17:59.824Z,99005.84
2019-05-14T10:19:59.470Z,99002.89
2019-05-14T10:21:59.261Z,99004.20
2019-05-14T10:24:00.857Z,99002.91
2019-05-14T10:26:02.444Z,98999.95
2019-05-14T10:28:04.029Z,98996.13
2019-05-14T10:30:05.668Z,98988.42
2019-05-14T10:32:08.752Z,98990.92
2019-05-14T10:34:08.946Z,98981.05
2019-05-14T10:36:10.619Z,98977.67
2019-05-14T10:38:12.229Z,98975.97
2019-05-14T10:40:13.996Z,98965.24
2019-05-14T10:42:15.593Z,98961.67
2019-05-14T10:44:18.797Z,98953.78
2019-05-14T10:46:19.309Z,98952.47
2019-05-14T10:48:20.812Z,98952.58
2019-05-14T10:50:22.463Z,98963.23
2019-05-14T10:52:24.086Z,98956.87
2019-05-14T10:54:28.691Z,98966.33
2019-05-14T10:56:29.716Z,98964.23
2019-05-14T10:58:29.247Z,98969.38
2019-05-14T11:00:30.677Z,98980.08
2019-05-14T11:02:32.255Z,98972.36
2019-05-14T11:04:34.605Z,98982.50
2019-05-14T11:06:35.512Z,98981.63
2019-05-14T11:08:38.715Z,98983.66
2019-05-14T11:10:42.336Z,98984.86
2019-05-14T11:12:40.432Z,98979.74
2019-05-14T11:14:42.133Z,98957.63
2019-05-14T11:16:43.760Z,98970.48
2019-05-14T11:18:45.419Z,98963.84
2019-05-14T11:20:51.276Z,98958.66
2019-05-14T11:22:49.234Z,98950.69
2019-05-14T11:24:50.327Z,98953.36
2019-05-14T11:26:51.936Z,98954.70
2019-05-14T11:28:53.546Z,98953.03
2019-05-14T11:30:55.139Z,98954.38
2019-05-14T11:32:58.463Z,98951.86
2019-05-14T11:34:59.246Z,98945.53
2019-05-14T11:37:00.436Z,98948.12
2019-05-14T11:39:03.981Z,98951.14
2019-05-14T11:41:03.971Z,98949.44
2019-05-14T11:43:05.543Z,98949.00
2019-05-14T11:45:08.913Z,98949.44
2019-05-14T11:47:09.251Z,98943.06
2019-05-14T11:49:10.468Z,98942.67
2019-05-14T11:51:12.052Z,98948.67
2019-05-14T11:53:13.653Z,98941.88
2019-05-14T11:55:15.263Z,98935.52
2019-05-14T11:57:19.170Z,98931.72
2019-05-14T11:59:19.068Z,98937.71
2019-05-14T12:01:20.283Z,98927.48
2019-05-14T12:03:21.868Z,98939.02
2019-05-14T12:05:23.472Z,98930.95
2019-05-14T12:07:25.093Z,98978.27
2019-05-14T12:09:28.368Z,98931.38
2019-05-14T12:11:29.087Z,98933.54
2019-05-14T12:13:32.777Z,98928.85
2019-05-14T12:15:31.675Z,98935.64
2019-05-14T12:17:33.293Z,98936.03
2019-05-14T12:19:34.874Z,98941.58
2019-05-14T12:21:36.459Z,98941.55
2019-05-14T12:23:39.385Z,98938.14
2019-05-14T12:25:39.696Z,98942.41
2019-05-14T12:27:41.280Z,98939.45
2019-05-14T12:29:42.870Z,98936.86
2019-05-14T12:31:44.520Z,98936.89
2019-05-14T12:33:48.657Z,98929.64
2019-05-14T12:35:49.543Z,98938.17
2019-05-14T12:37:49.460Z,98944.98
2019-05-14T12:39:51.076Z,98893.66
2019-05-14T12:41:52.689Z,98939.84
2019-05-14T12:43:54.290Z,98941.09
2019-05-14T12:45:59.103Z,98942.77
2019-05-14T12:47:58.495Z,98938.90
2019-05-14T12:49:59.220Z,98940.14
2019-05-14T12:52:16.329Z,98934.14
2019-05-14T12:54:02.469Z,98915.08
2019-05-14T12:56:04.112Z,98928.96
2019-05-14T12:58:08.114Z,98927.22
2019-05-14T13:00:08.939Z,98928.08
2019-05-14T13:02:09.787Z,98919.08
2019-05-14T13:04:10.684Z,98888.55
2019-05-14T13:06:12.283Z,98905.89
2019-05-14T13:08:13.864Z,98903.73
2019-05-14T13:10:15.473Z,98904.58
2019-05-14T13:12:18.981Z,98898.64
2019-05-14T13:14:18.733Z,98894.38
2019-05-14T13:16:20.340Z,98888.84
2019-05-14T13:18:21.967Z,98887.16
2019-05-14T13:20:23.570Z,98884.08
2019-05-14T13:22:38.287Z,98877.70
2019-05-14T13:24:28.804Z,98879.03
2019-05-14T13:26:29.698Z,98868.37
2019-05-14T13:28:30.228Z,98875.69
2019-05-14T13:30:31.858Z,98874.44
2019-05-14T13:32:33.512Z,98871.95
2019-05-14T13:34:35.124Z,98866.45
2019-05-14T13:36:39.500Z,98869.86
2019-05-14T13:38:39.786Z,98862.58
2019-05-14T13:40:40.157Z,98859.52
2019-05-14T13:42:44.514Z,98860.41
2019-05-14T13:44:43.438Z,98852.73
2019-05-14T13:46:45.035Z,98842.99
2019-05-14T13:48:49.601Z,98849.00
2019-05-14T13:50:49.098Z,98843.06
2019-05-14T13:53:03.021Z,98838.41
2019-05-14T13:54:51.645Z,98835.10
2019-05-14T13:56:53.255Z,98830.88
2019-05-14T13:58:54.844Z,98829.23
2019-05-14T14:00:59.141Z,98826.72
2019-05-14T14:02:58.954Z,98821.20
2019-05-14T14:04:59.731Z,98799.21
2019-05-14T14:07:01.313Z,98821.56
2019-05-14T14:09:02.899Z,98819.01
2019-05-14T14:11:04.746Z,98813.01
2019-05-14T14:13:10.650Z,98807.47
2019-05-14T14:15:09.447Z,98806.62
2019-05-14T14:17:09.535Z,98819.05
2019-05-14T14:19:11.125Z,98806.32
2019-05-14T14:21:12.714Z,98803.38
2019-05-14T14:23:21.936Z,98805.08
2019-05-14T14:25:17.761Z,98814.45
2019-05-14T14:27:19.544Z,98809.80
2019-05-14T14:29:19.431Z,98808.09
2019-05-14T14:31:21.037Z,98818.32
2019-05-14T14:33:22.664Z,98815.77
2019-05-14T14:35:24.779Z,98828.09
2019-05-14T14:37:28.506Z,98826.75
2019-05-14T14:39:28.573Z,98812.19
2019-05-14T14:41:29.242Z,98810.02
2019-05-14T14:43:30.830Z,98812.91
2019-05-14T14:45:32.589Z,98812.02
2019-05-14T14:47:34.285Z,98808.61
2019-05-14T14:49:35.916Z,98803.91
2019-05-14T14:51:44.503Z,98797.56
2019-05-14T14:53:52.587Z,98805.27
2019-05-14T14:55:40.981Z,98800.22
2019-05-14T14:57:45.753Z,98799.05
2019-05-14T14:59:45.201Z,98797.02
2019-05-14T15:01:49.842Z,98785.97
2019-05-14T15:03:49.585Z,98786.82
2019-05-14T15:05:50.113Z,98787.18
2019-05-14T15:07:51.760Z,98784.91
2019-05-14T15:09:53.331Z,98779.73
2019-05-14T15:11:54.925Z,98774.50
2019-05-14T15:13:58.695Z,98779.93
2019-05-14T15:16:00.957Z,98778.14
2019-05-14T15:17:59.833Z,98772.88
2019-05-14T15:20:01.479Z,98770.73
2019-05-14T15:22:03.164Z,98767.25
2019-05-14T15:24:13.834Z,98771.90
2019-05-14T15:26:11.566Z,98769.77
2019-05-14T15:28:09.439Z,98770.54
2019-05-14T15:30:09.904Z,98768.45
2019-05-14T15:32:11.538Z,98763.72
2019-05-14T15:34:13.140Z,98767.17
2019-05-14T15:36:14.759Z,98760.72
2019-05-14T15:38:16.415Z,98762.86
2019-05-14T15:40:22.158Z,98751.37
2019-05-14T15:42:19.681Z,98748.09
2019-05-14T15:44:21.269Z,98745.23
2019-05-14T15:46:22.852Z,98745.73
2019-05-14T15:48:24.427Z,98746.59
2019-05-14T15:50:29.151Z,98737.69
2019-05-14T15:52:28.972Z,98746.25
2019-05-14T15:54:42.088Z,98741.60
2019-05-14T15:56:31.061Z,98736.91
2019-05-14T15:58:32.686Z,98733.54
2019-05-14T16:00:34.317Z,98732.27
2019-05-14T16:02:38.674Z,98731.02
2019-05-14T16:04:38.879Z,98724.20
2019-05-14T16:06:39.202Z,98726.38
2019-05-14T16:08:40.785Z,98724.75
2019-05-14T16:10:42.428Z,98720.95
2019-05-14T16:12:44.007Z,98719.28
2019-05-14T16:14:48.738Z,98720.13
2019-05-14T16:16:48.720Z,98711.61
2019-05-14T16:18:49.012Z,98715.88
2019-05-14T16:20:50.652Z,98708.20
2019-05-14T16:22:52.377Z,98706.50
2019-05-14T16:24:57.081Z,98709.55
2019-05-14T16:26:55.671Z,98710.02
2019-05-14T16:28:59.283Z,98698.98
2019-05-14T16:30:59.347Z,98700.33
2019-05-14T16:33:00.636Z,98658.55
2019-05-14T16:35:02.210Z,98697.45
2019-05-14T16:37:03.821Z,98694.94
2019-05-14T16:39:05.422Z,98698.84
2019-05-14T16:41:06.999Z,98693.73
2019-05-14T16:43:08.616Z,98692.45
2019-05-14T16:45:10.238Z,98689.01
2019-05-14T16:47:11.836Z,98688.13
2019-05-14T16:49:13.489Z,98690.61
2019-05-14T16:51:15.077Z,98685.06
2019-05-14T16:53:16.716Z,98683.72
2019-05-14T16:55:24.521Z,98688.36
2019-05-14T16:57:19.936Z,98685.80
2019-05-14T16:59:21.534Z,98679.77
2019-05-14T17:01:23.128Z,98675.42
2019-05-14T17:03:24.747Z,98677.09
2019-05-14T17:05:28.853Z,98677.09
2019-05-14T17:07:28.905Z,98679.61
2019-05-14T17:09:29.625Z,98676.55
2019-05-14T17:11:31.310Z,98630.03
2019-05-14T17:13:32.916Z,98671.34
2019-05-14T17:15:34.528Z,98671.69
2019-05-14T17:17:36.171Z,98677.23
2019-05-14T17:19:38.572Z,98666.15
2019-05-14T17:21:39.424Z,98678.53
2019-05-14T17:23:41.017Z,98670.41
2019-05-14T17:25:42.615Z,98675.57
2019-05-14T17:27:44.222Z,98671.85
2019-05-14T17:29:45.809Z,98677.48
2019-05-14T17:31:49.338Z,98669.88
2019-05-14T17:33:49.433Z,98671.59
2019-05-14T17:35:50.721Z,98665.58
2019-05-14T17:37:52.347Z,98665.12
2019-05-14T17:39:53.979Z,98668.53
2019-05-14T17:41:55.680Z,98673.21
2019-05-14T17:43:58.597Z,98674.06
2019-05-14T17:45:58.944Z,98677.82
2019-05-14T17:48:00.625Z,98674.80
2019-05-14T17:50:02.248Z,98675.22
2019-05-14T17:52:03.887Z,98675.27
2019-05-14T17:54:05.541Z,98674.37
2019-05-14T17:56:08.427Z,98668.83
2019-05-14T17:58:13.112Z,98669.25
2019-05-14T18:00:11.056Z,98645.52
2019-05-14T18:02:14.190Z,98664.95
2019-05-14T18:04:18.210Z,98662.83
2019-05-14T18:06:18.901Z,98665.81
2019-05-14T18:08:21.675Z,98663.25
2019-05-14T18:10:23.596Z,98663.71
2019-05-14T18:12:25.428Z,98670.15
2019-05-14T18:14:28.400Z,98673.64
2019-05-14T18:16:28.828Z,98669.88
2019-05-14T18:18:30.380Z,98674.65
2019-05-14T18:20:31.996Z,98668.38
2019-05-14T18:22:33.648Z,98676.12
2019-05-14T18:24:35.242Z,98672.75
2019-05-14T18:26:38.597Z,98673.25
2019-05-14T18:28:38.581Z,98670.77
2019-05-14T18:30:40.184Z,98675.48
2019-05-14T18:32:41.804Z,98678.50
2019-05-14T18:34:43.404Z,98678.05
2019-05-14T18:36:44.982Z,98679.70
2019-05-14T18:38:49.106Z,98679.64
2019-05-14T18:40:49.532Z,98674.06
2019-05-14T18:42:50.721Z,98679.56
2019-05-14T18:44:52.328Z,98672.75
2019-05-14T18:46:53.963Z,98678.67
2019-05-14T18:48:55.536Z,98676.94
2019-05-14T18:50:59.274Z,98673.91
2019-05-14T18:52:59.711Z,98677.67
2019-05-14T18:55:00.515Z,98687.86
2019-05-14T18:57:02.122Z,98690.80
2019-05-14T18:59:03.732Z,98692.05
2019-05-14T19:01:05.340Z,98690.30
2019-05-14T19:03:08.445Z,98688.13
2019-05-14T19:05:08.749Z,98683.87
2019-05-14T19:07:10.282Z,98683.41
2019-05-14T19:09:11.868Z,98685.92
2019-05-14T19:11:13.476Z,98686.81
2019-05-14T19:13:15.096Z,98682.16
2019-05-14T19:15:18.561Z,98683.91
2019-05-14T19:17:18.749Z,98686.97
2019-05-14T19:19:20.780Z,98680.54
2019-05-14T19:21:21.876Z,98685.19
2019-05-14T19:23:23.496Z,98686.00
2019-05-14T19:25:25.100Z,98682.59
2019-05-14T19:27:28.628Z,98680.00
2019-05-14T19:29:28.373Z,98678.25
2019-05-14T19:31:29.974Z,98680.38
2019-05-14T19:33:31.607Z,98676.50
2019-05-14T19:35:33.196Z,98674.84
2019-05-14T19:37:34.804Z,98677.81
2019-05-14T19:39:38.363Z,98675.69
2019-05-14T19:41:38.983Z,98674.84
2019-05-14T19:43:39.728Z,98670.58
2019-05-14T19:45:41.340Z,98677.86
2019-05-14T19:47:42.928Z,98671.43
2019-05-14T19:49:44.550Z,98668.88
2019-05-14T19:51:48.121Z,98669.77
2019-05-14T19:53:48.889Z,98668.09
2019-05-14T19:55:49.432Z,98667.20
2019-05-14T19:57:51.056Z,98665.04
2019-05-14T19:59:52.737Z,98670.19
2019-05-14T20:01:54.368Z,98668.48
2019-05-14T20:03:55.965Z,98658.25
2019-05-14T20:05:57.664Z,98667.20
2019-05-14T20:07:59.257Z,98664.69
2019-05-14T20:10:00.901Z,98661.66
2019-05-14T20:12:02.661Z,98666.35
2019-05-14T20:14:04.272Z,98665.97
2019-05-14T20:16:05.900Z,98660.86
2019-05-14T20:18:08.933Z,98667.25
2019-05-14T20:20:09.273Z,98663.91
2019-05-14T20:22:10.852Z,98662.72
2019-05-14T20:24:12.437Z,98668.34
2019-05-14T20:26:14.085Z,98670.55
2019-05-14T20:28:15.692Z,98665.08
2019-05-14T20:30:18.786Z,98668.98
2019-05-14T20:32:19.505Z,98665.23
2019-05-14T20:34:20.636Z,98623.04
2019-05-14T20:36:22.253Z,98668.35
2019-05-14T20:38:23.916Z,98673.50
2019-05-14T20:40:25.557Z,98671.86
2019-05-14T20:42:28.979Z,98665.08
2019-05-14T20:44:28.823Z,98670.65
2019-05-14T20:46:30.436Z,98670.66
2019-05-14T20:48:32.050Z,98668.98
2019-05-14T20:50:33.626Z,98674.55
2019-05-14T20:52:35.218Z,98673.30
2019-05-14T20:54:36.823Z,98672.91
2019-05-14T20:56:40.200Z,98604.83
2019-05-14T20:58:40.108Z,98674.25
2019-05-14T21:00:41.739Z,98667.86
2019-05-14T21:02:43.364Z,98663.38
2019-05-14T21:04:45.039Z,98662.91
2019-05-14T21:06:48.582Z,98666.18
2019-05-14T21:08:48.892Z,98651.37
2019-05-14T21:10:50.082Z,98663.00
2019-05-14T21:12:51.713Z,98658.78
2019-05-14T21:14:53.324Z,98618.06
2019-05-14T21:16:54.911Z,98661.39
2019-05-14T21:18:59.066Z,98668.21
2019-05-14T21:20:58.160Z,98667.32
2019-05-14T21:22:59.758Z,98668.06
2019-05-14T21:25:01.437Z,98652.55
2019-05-14T21:27:03.050Z,98651.63
2019-05-14T21:29:04.707Z,98656.27
2019-05-14T21:31:10.141Z,98659.20
2019-05-14T21:33:08.549Z,98655.27
2019-05-14T21:35:09.701Z,98653.60
2019-05-14T21:37:11.302Z,98654.25
2019-05-14T21:39:12.960Z,98655.47
2019-05-14T21:41:14.547Z,98651.13
2019-05-14T21:43:18.398Z,98647.83
2019-05-14T21:45:18.149Z,98644.75
2019-05-14T21:47:19.448Z,98641.02
2019-05-14T21:49:21.047Z,98649.55
2019-05-14T21:51:22.661Z,98643.80
2019-05-14T21:53:24.268Z,98645.20
2019-05-14T21:55:25.924Z,98644.23
2019-05-14T21:57:28.355Z,98635.20
2019-05-14T21:59:29.216Z,98633.80
2019-05-14T22:01:31.147Z,98631.98
2019-05-14T22:03:32.444Z,98628.09
2019-05-14T22:05:34.258Z,98635.25
2019-05-14T22:07:35.856Z,98629.61
2019-05-14T22:09:40.581Z,98631.59
2019-05-14T22:11:39.400Z,98637.61
2019-05-14T22:13:40.740Z,98631.08
2019-05-14T22:15:42.368Z,98633.62
2019-05-14T22:17:43.952Z,98627.92
2019-05-14T22:19:45.588Z,98625.44
2019-05-14T22:21:49.101Z,98628.46
2019-05-14T22:23:48.839Z,98627.52
2019-05-14T22:25:50.483Z,98625.30
2019-05-14T22:27:52.108Z,98623.43
2019-05-14T22:29:53.688Z,98612.88
2019-05-14T22:31:55.296Z,98621.09
2019-05-14T22:33:58.283Z,98618.28
2019-05-14T22:35:58.536Z,98612.48
2019-05-14T22:38:00.124Z,98609.61
2019-05-14T22:40:01.716Z,98608.96
2019-05-14T22:42:03.338Z,98607.45
2019-05-14T22:44:04.952Z,98609.73
2019-05-14T22:46:08.462Z,98615.37
2019-05-14T22:48:09.400Z,98619.26
2019-05-14T22:50:09.823Z,98612.53
2019-05-14T22:52:11.740Z,98620.25
2019-05-14T22:54:13.364Z,98613.05
2019-05-14T22:56:14.973Z,98613.94
2019-05-14T22:58:25.212Z,98609.77
2019-05-14T23:00:20.739Z,98611.52
2019-05-14T23:02:19.948Z,98611.58
2019-05-14T23:04:21.576Z,98609.48
2019-05-14T23:06:23.169Z,98615.41
2019-05-14T23:08:24.780Z,98606.50
2019-05-14T23:10:26.391Z,98612.05
2019-05-14T23:12:28.669Z,98615.50
2019-05-14T23:14:29.658Z,98618.02
2019-05-14T23:16:37.760Z,98619.30
2019-05-14T23:18:32.912Z,98615.89
2019-05-14T23:20:34.497Z,98613.34
2019-05-14T23:22:38.860Z,98603.56
2019-05-14T23:24:39.115Z,98604.42
2019-05-14T23:26:39.438Z,98607.84
2019-05-14T23:28:45.509Z,98611.28
2019-05-14T23:30:42.674Z,98603.66
2019-05-14T23:32:44.277Z,98601.95
2019-05-14T23:34:45.888Z,98604.04
2019-05-14T23:36:48.287Z,98600.59
2019-05-14T23:38:49.329Z,98599.27
2019-05-14T23:40:50.787Z,98591.97
2019-05-14T23:42:52.375Z,98594.11
2019-05-14T23:44:53.968Z,98596.59
2019-05-14T23:46:55.557Z,98596.59
2019-05-14T23:48:59.169Z,98594.05